Preview of NWS' New Version of Forecast
This preview is not operational and should not be used for support decisions.

Terminal Aerodrome Forecast (TAF)

Issued by National Weather Service (NWS)

                            
000
FTUS42 KCAE 192328
TAFOGB
TAF
KOGB 192328Z 2000/2024 VRB05KT P6SM VCSH BKN035
     FM201600 18010KT P6SM VCSH BKN040
      TEMPO 2019/2023 TSRA BKN040CB=